^^
Station Historical Data
Daily Summary for May 30, 2017 Units:  Both    English   Metric
« Previous Day
Next Day »
Daily Weekly Monthly Yearly Custom
  High: Low: Average:
Temperature: 74.3 °F /  23.5 °C 47.8 °F /  8.8 °C 59.3 °F /  15.2 °C
Dew Point: 43.5 °F /  6.4 °C 17.4 °F /  -8.1 °C 31.8 °F /  -0.1 °C
Humidity: 71% 19% 38%
Wind Speed: 8.9mph /  14.3km/h - 1.1mph /  1.8km/h
Wind Gust: 11.0mph /  17.7km/h - -
Wind- - East
Pressure: 30.44 in /  1030.7 hPa 30.31 in /  1026.3 hPa -
Precipitation: 0.00 in /  0 mm    
Historical Graphs
 
 
Tabular Data for May 30, 2017
Time Temperature Dew Point Pressure Wind Wind Speed Wind Gust Humidity Rainfall Rate (Hourly) solar Conditions
00:00 54.0 °F /  12.2 °C 19.8 °F /  -6.8 °C 30.44in /  1030.7hPa Calm   2.0mph /  3.2km/h 26% 0.00in /  0mm 0.0 W/m2
00:06 54.0 °F /  12.2 °C 20.7 °F /  -6.3 °C 30.44in /  1030.7hPa Calm     27% 0.00in /  0mm 0.0 W/m2
00:12 53.8 °F /  12.1 °C 20.7 °F /  -6.3 °C 30.44in /  1030.7hPa Calm     27% 0.00in /  0mm 0.0 W/m2
00:18 53.4 °F /  11.9 °C 20.3 °F /  -6.5 °C 30.43in /  1030.4hPa Calm   1.0mph /  1.6km/h 27% 0.00in /  0mm 0.0 W/m2
00:24 53.1 °F /  11.7 °C 19.0 °F /  -7.2 °C 30.43in /  1030.4hPa Calm     26% 0.00in /  0mm 0.0 W/m2
00:30 52.9 °F /  11.6 °C 18.9 °F /  -7.3 °C 30.43in /  1030.4hPa Calm   3.0mph /  4.8km/h 26% 0.00in /  0mm 0.0 W/m2
00:36 52.5 °F /  11.4 °C 18.7 °F /  -7.4 °C 30.43in /  1030.4hPa Calm   2.0mph /  3.2km/h 26% 0.00in /  0mm 0.0 W/m2
00:42 52.3 °F /  11.3 °C 18.5 °F /  -7.5 °C 30.43in /  1030.4hPa NNE 0.9mph /  1.4km/h 1.0mph /  1.6km/h 26% 0.00in /  0mm 0.0 W/m2
00:48 52.2 °F /  11.2 °C 18.3 °F /  -7.6 °C 30.43in /  1030.4hPa Calm   4.0mph /  6.4km/h 26% 0.00in /  0mm 0.0 W/m2
00:54 52.2 °F /  11.2 °C 17.4 °F /  -8.1 °C 30.43in /  1030.4hPa NNE 2.0mph /  3.2km/h 4.0mph /  6.4km/h 25% 0.00in /  0mm 0.0 W/m2
00:58 52.3 °F /  11.3 °C 17.6 °F /  -8 °C 30.43in /  1030.4hPa Calm   3.0mph /  4.8km/h 25% 0.00in /  0mm 0.0 W/m2
01:04 52.7 °F /  11.5 °C 17.8 °F /  -7.9 °C 30.43in /  1030.4hPa Calm   6.0mph /  9.7km/h 25% 0.00in /  0mm 0.0 W/m2
01:10 52.9 °F /  11.6 °C 18.0 °F /  -7.8 °C 30.43in /  1030.4hPa Calm   4.0mph /  6.4km/h 25% 0.00in /  0mm 0.0 W/m2
01:16 52.9 °F /  11.6 °C 18.0 °F /  -7.8 °C 30.43in /  1030.4hPa Calm   2.0mph /  3.2km/h 25% 0.00in /  0mm 0.0 W/m2
01:22 52.9 °F /  11.6 °C 18.9 °F /  -7.3 °C 30.43in /  1030.4hPa NE 2.0mph /  3.2km/h 7.0mph /  11.3km/h 26% 0.00in /  0mm 0.0 W/m2
01:28 52.9 °F /  11.6 °C 18.9 °F /  -7.3 °C 30.42in /  1030hPa Calm   5.0mph /  8km/h 26% 0.00in /  0mm 0.0 W/m2
01:34 53.1 °F /  11.7 °C 19.0 °F /  -7.2 °C 30.42in /  1030hPa Calm   2.0mph /  3.2km/h 26% 0.00in /  0mm 0.0 W/m2
01:40 52.9 °F /  11.6 °C 19.8 °F /  -6.8 °C 30.42in /  1030hPa ESE 4.9mph /  7.9km/h 5.0mph /  8km/h 27% 0.00in /  0mm 0.0 W/m2
01:46 52.9 °F /  11.6 °C 19.8 °F /  -6.8 °C 30.42in /  1030hPa Calm   6.0mph /  9.7km/h 27% 0.00in /  0mm 0.0 W/m2
01:52 52.5 °F /  11.4 °C 20.3 °F /  -6.5 °C 30.42in /  1030hPa ENE 4.9mph /  7.9km/h 5.0mph /  8km/h 28% 0.00in /  0mm 0.0 W/m2
01:58 52.5 °F /  11.4 °C 20.3 °F /  -6.5 °C 30.42in /  1030hPa Calm   7.0mph /  11.3km/h 28% 0.00in /  0mm 0.0 W/m2
02:04 52.3 °F /  11.3 °C 21.0 °F /  -6.1 °C 30.42in /  1030hPa ESE 0.9mph /  1.4km/h 6.0mph /  9.7km/h 29% 0.00in /  0mm 0.0 W/m2
02:10 52.3 °F /  11.3 °C 21.7 °F /  -5.7 °C 30.41in /  1029.7hPa Calm   5.0mph /  8km/h 30% 0.00in /  0mm 0.0 W/m2
02:16 52.3 °F /  11.3 °C 21.7 °F /  -5.7 °C 30.42in /  1030hPa Calm   4.0mph /  6.4km/h 30% 0.00in /  0mm 0.0 W/m2
02:22 52.3 °F /  11.3 °C 21.7 °F /  -5.7 °C 30.41in /  1029.7hPa Calm   5.0mph /  8km/h 30% 0.00in /  0mm 0.0 W/m2
02:28 52.3 °F /  11.3 °C 21.7 °F /  -5.7 °C 30.41in /  1029.7hPa Calm   3.0mph /  4.8km/h 30% 0.00in /  0mm 0.0 W/m2
02:34 52.2 °F /  11.2 °C 22.5 °F /  -5.3 °C 30.41in /  1029.7hPa East 2.9mph /  4.7km/h 4.0mph /  6.4km/h 31% 0.00in /  0mm 0.0 W/m2
02:40 52.2 °F /  11.2 °C 22.5 °F /  -5.3 °C 30.41in /  1029.7hPa SE 0.9mph /  1.4km/h 4.0mph /  6.4km/h 31% 0.00in /  0mm 0.0 W/m2
02:46 51.8 °F /  11 °C 23.5 °F /  -4.7 °C 30.41in /  1029.7hPa Calm   4.0mph /  6.4km/h 33% 0.00in /  0mm 0.0 W/m2
02:52 51.6 °F /  10.9 °C 24.8 °F /  -4 °C 30.41in /  1029.7hPa Calm   5.0mph /  8km/h 35% 0.00in /  0mm 0.0 W/m2
02:58 51.4 °F /  10.8 °C 26.1 °F /  -3.3 °C 30.40in /  1029.3hPa East 2.0mph /  3.2km/h 2.0mph /  3.2km/h 37% 0.00in /  0mm 0.0 W/m2
03:04 51.3 °F /  10.7 °C 25.9 °F /  -3.4 °C 30.41in /  1029.7hPa NE 4.0mph /  6.4km/h 4.0mph /  6.4km/h 37% 0.00in /  0mm 0.0 W/m2
03:10 51.3 °F /  10.7 °C 25.9 °F /  -3.4 °C 30.41in /  1029.7hPa Calm   4.0mph /  6.4km/h 37% 0.00in /  0mm 0.0 W/m2
03:16 51.1 °F /  10.6 °C 26.4 °F /  -3.1 °C 30.41in /  1029.7hPa Calm     38% 0.00in /  0mm 0.0 W/m2
03:22 50.7 °F /  10.4 °C 27.3 °F /  -2.6 °C 30.41in /  1029.7hPa Calm     40% 0.00in /  0mm 0.0 W/m2
03:28 50.5 °F /  10.3 °C 27.7 °F /  -2.4 °C 30.41in /  1029.7hPa Calm   1.0mph /  1.6km/h 41% 0.00in /  0mm 0.0 W/m2
03:34 50.4 °F /  10.2 °C 28.2 °F /  -2.1 °C 30.41in /  1029.7hPa Calm   1.0mph /  1.6km/h 42% 0.00in /  0mm 0.0 W/m2
03:40 50.2 °F /  10.1 °C 28.6 °F /  -1.9 °C 30.41in /  1029.7hPa Calm   1.0mph /  1.6km/h 43% 0.00in /  0mm 0.0 W/m2
03:46 49.8 °F /  9.9 °C 28.8 °F /  -1.8 °C 30.41in /  1029.7hPa Calm     44% 0.00in /  0mm 0.0 W/m2
03:52 49.6 °F /  9.8 °C 28.6 °F /  -1.9 °C 30.41in /  1029.7hPa Calm     44% 0.00in /  0mm 0.0 W/m2
03:58 49.3 °F /  9.6 °C 27.7 °F /  -2.4 °C 30.41in /  1029.7hPa Calm     43% 0.00in /  0mm 0.0 W/m2
04:04 48.9 °F /  9.4 °C 28.6 °F /  -1.9 °C 30.41in /  1029.7hPa Calm     45% 0.00in /  0mm 0.0 W/m2
04:10 48.4 °F /  9.1 °C 28.6 °F /  -1.9 °C 30.41in /  1029.7hPa Calm     46% 0.00in /  0mm 0.0 W/m2
04:16 48.0 °F /  8.9 °C 29.3 °F /  -1.5 °C 30.41in /  1029.7hPa Calm     48% 0.00in /  0mm 0.0 W/m2
04:22 47.8 °F /  8.8 °C 30.0 °F /  -1.1 °C 30.41in /  1029.7hPa Calm     50% 0.00in /  0mm 0.0 W/m2
04:28 47.8 °F /  8.8 °C 31.1 °F /  -0.5 °C 30.41in /  1029.7hPa Calm     52% 0.00in /  0mm 0.0 W/m2
04:34 48.0 °F /  8.9 °C 31.6 °F /  -0.2 °C 30.41in /  1029.7hPa Calm     53% 0.00in /  0mm 0.0 W/m2
04:40 48.4 °F /  9.1 °C 32.5 °F /  0.3 °C 30.41in /  1029.7hPa Calm   1.0mph /  1.6km/h 54% 0.00in /  0mm 0.0 W/m2
04:46 48.4 °F /  9.1 °C 32.5 °F /  0.3 °C 30.41in /  1029.7hPa Calm     54% 0.00in /  0mm 0.0 W/m2
04:52 48.4 °F /  9.1 °C 32.9 °F /  0.5 °C 30.41in /  1029.7hPa Calm   3.0mph /  4.8km/h 55% 0.00in /  0mm 0.0 W/m2
05:05 48.4 °F /  9.1 °C 33.8 °F /  1 °C 30.41in /  1029.7hPa Calm   5.0mph /  8km/h 57% 0.00in /  0mm 0.0 W/m2
05:11 48.4 °F /  9.1 °C 34.7 °F /  1.5 °C 30.41in /  1029.7hPa Calm     59% 0.00in /  0mm 0.0 W/m2
05:17 48.4 °F /  9.1 °C 34.7 °F /  1.5 °C 30.41in /  1029.7hPa Calm   1.0mph /  1.6km/h 59% 0.00in /  0mm 0.0 W/m2
05:23 48.4 °F /  9.1 °C 35.1 °F /  1.7 °C 30.41in /  1029.7hPa Calm   2.0mph /  3.2km/h 60% 0.00in /  0mm 0.0 W/m2
05:29 48.6 °F /  9.2 °C 35.2 °F /  1.8 °C 30.41in /  1029.7hPa Calm   3.0mph /  4.8km/h 60% 0.00in /  0mm 0.0 W/m2
05:35 48.6 °F /  9.2 °C 35.2 °F /  1.8 °C 30.41in /  1029.7hPa Calm     60% 0.00in /  0mm 0.0 W/m2
05:41 48.7 °F /  9.3 °C 35.4 °F /  1.9 °C 30.42in /  1030hPa Calm   1.0mph /  1.6km/h 60% 0.00in /  0mm 0.0 W/m2
05:48 48.7 °F /  9.3 °C 36.3 °F /  2.4 °C 30.41in /  1029.7hPa Calm   1.0mph /  1.6km/h 62% 0.00in /  0mm 0.0 W/m2
05:54 48.7 °F /  9.3 °C 36.7 °F /  2.6 °C 30.41in /  1029.7hPa Calm   8.0mph /  12.9km/h 63% 0.00in /  0mm 0.0 W/m2
06:00 49.3 °F /  9.6 °C 37.6 °F /  3.1 °C 30.41in /  1029.7hPa East 0.9mph /  1.4km/h 6.0mph /  9.7km/h 64% 0.00in /  0mm 0.0 W/m2
06:06 49.5 °F /  9.7 °C 37.8 °F /  3.2 °C 30.41in /  1029.7hPa Calm   5.0mph /  8km/h 64% 0.00in /  0mm 0.0 W/m2
06:12 49.6 °F /  9.8 °C 37.9 °F /  3.3 °C 30.41in /  1029.7hPa East 0.9mph /  1.4km/h 7.0mph /  11.3km/h 64% 0.00in /  0mm 0.0 W/m2
06:18 49.6 °F /  9.8 °C 37.6 °F /  3.1 °C 30.41in /  1029.7hPa NNE 2.9mph /  4.7km/h 6.0mph /  9.7km/h 63% 0.00in /  0mm 0.0 W/m2
06:24 49.6 °F /  9.8 °C 37.9 °F /  3.3 °C 30.41in /  1029.7hPa NE 2.0mph /  3.2km/h 10.0mph /  16.1km/h 64% 0.00in /  0mm 0.0 W/m2
06:30 49.6 °F /  9.8 °C 37.9 °F /  3.3 °C 30.41in /  1029.7hPa Calm   6.0mph /  9.7km/h 64% 0.00in /  0mm 5.0 W/m2
06:37 49.5 °F /  9.7 °C 37.8 °F /  3.2 °C 30.41in /  1029.7hPa Calm   5.0mph /  8km/h 64% 0.00in /  0mm 9.0 W/m2
06:43 49.5 °F /  9.7 °C 38.1 °F /  3.4 °C 30.41in /  1029.7hPa Calm   8.0mph /  12.9km/h 65% 0.00in /  0mm 11.0 W/m2
06:49 49.3 °F /  9.6 °C 38.5 °F /  3.6 °C 30.41in /  1029.7hPa East 0.9mph /  1.4km/h 1.0mph /  1.6km/h 66% 0.00in /  0mm 12.0 W/m2
06:55 49.3 °F /  9.6 °C 38.8 °F /  3.8 °C 30.41in /  1029.7hPa ENE 6.0mph /  9.7km/h 6.0mph /  9.7km/h 67% 0.00in /  0mm 14.0 W/m2
07:01 49.5 °F /  9.7 °C 39.7 °F /  4.3 °C 30.41in /  1029.7hPa Calm   6.0mph /  9.7km/h 69% 0.00in /  0mm 16.0 W/m2
07:07 49.6 °F /  9.8 °C 40.6 °F /  4.8 °C 30.41in /  1029.7hPa ESE 0.9mph /  1.4km/h 11.0mph /  17.7km/h 71% 0.00in /  0mm 18.0 W/m2
07:13 50.4 °F /  10.2 °C 41.4 °F /  5.2 °C 30.41in /  1029.7hPa Calm   6.0mph /  9.7km/h 71% 0.00in /  0mm 19.0 W/m2
07:19 50.9 °F /  10.5 °C 41.9 °F /  5.5 °C 30.41in /  1029.7hPa NNE 2.0mph /  3.2km/h 5.0mph /  8km/h 71% 0.00in /  0mm 19.0 W/m2
07:25 51.6 °F /  10.9 °C 42.1 °F /  5.6 °C 30.41in /  1029.7hPa Calm   5.0mph /  8km/h 70% 0.00in /  0mm 21.0 W/m2
07:31 52.2 °F /  11.2 °C 42.3 °F /  5.7 °C 30.41in /  1029.7hPa East 2.0mph /  3.2km/h 9.0mph /  14.5km/h 69% 0.00in /  0mm 23.0 W/m2
07:38 52.7 °F /  11.5 °C 42.4 °F /  5.8 °C 30.41in /  1029.7hPa Calm   6.0mph /  9.7km/h 68% 0.00in /  0mm 25.0 W/m2
07:44 53.2 °F /  11.8 °C 42.6 °F /  5.9 °C 30.41in /  1029.7hPa ESE 2.9mph /  4.7km/h 6.0mph /  9.7km/h 67% 0.00in /  0mm 25.0 W/m2
07:50 54.0 °F /  12.2 °C 42.4 °F /  5.8 °C 30.41in /  1029.7hPa North 0.9mph /  1.4km/h 6.0mph /  9.7km/h 65% 0.00in /  0mm 26.0 W/m2
07:56 55.0 °F /  12.8 °C 42.6 °F /  5.9 °C 30.41in /  1029.7hPa East 8.9mph /  14.3km/h 9.0mph /  14.5km/h 63% 0.00in /  0mm 30.0 W/m2
08:02 56.1 °F /  13.4 °C 42.8 °F /  6 °C 30.41in /  1029.7hPa NNE 4.0mph /  6.4km/h 10.0mph /  16.1km/h 61% 0.00in /  0mm 155.0 W/m2
08:08 57.0 °F /  13.9 °C 43.3 °F /  6.3 °C 30.41in /  1029.7hPa East 2.9mph /  4.7km/h 8.0mph /  12.9km/h 60% 0.00in /  0mm 330.0 W/m2
08:14 57.7 °F /  14.3 °C 43.0 °F /  6.1 °C 30.41in /  1029.7hPa ESE 2.9mph /  4.7km/h 9.0mph /  14.5km/h 58% 0.00in /  0mm 350.0 W/m2
08:20 58.3 °F /  14.6 °C 43.5 °F /  6.4 °C 30.40in /  1029.3hPa East 4.0mph /  6.4km/h 8.0mph /  12.9km/h 58% 0.00in /  0mm 373.0 W/m2
08:26 58.6 °F /  14.8 °C 43.5 °F /  6.4 °C 30.40in /  1029.3hPa Calm   5.0mph /  8km/h 57% 0.00in /  0mm 392.0 W/m2
08:32 59.2 °F /  15.1 °C 43.5 °F /  6.4 °C 30.41in /  1029.7hPa NNE 0.9mph /  1.4km/h 10.0mph /  16.1km/h 56% 0.00in /  0mm 408.0 W/m2
08:38 59.5 °F /  15.3 °C 42.8 °F /  6 °C 30.41in /  1029.7hPa ENE 2.0mph /  3.2km/h 9.0mph /  14.5km/h 54% 0.00in /  0mm 427.0 W/m2
08:44 60.1 °F /  15.6 °C 43.0 °F /  6.1 °C 30.41in /  1029.7hPa East 8.1mph /  13km/h 10.0mph /  16.1km/h 53% 0.00in /  0mm 446.0 W/m2
08:46 60.3 °F /  15.7 °C 43.0 °F /  6.1 °C 30.41in /  1029.7hPa ENE 4.9mph /  7.9km/h 9.0mph /  14.5km/h 53% 0.00in /  0mm 454.0 W/m2
08:53 60.4 °F /  15.8 °C 42.8 °F /  6 °C 30.41in /  1029.7hPa ENE 0.9mph /  1.4km/h 9.0mph /  14.5km/h 52% 0.00in /  0mm 471.0 W/m2
08:59 61.2 °F /  16.2 °C 43.3 °F /  6.3 °C 30.40in /  1029.3hPa ENE 4.0mph /  6.4km/h 8.0mph /  12.9km/h 52% 0.00in /  0mm 489.0 W/m2
09:05 61.5 °F /  16.4 °C 42.3 °F /  5.7 °C 30.40in /  1029.3hPa NE 0.9mph /  1.4km/h 6.0mph /  9.7km/h 49% 0.00in /  0mm 504.0 W/m2
09:11 62.1 °F /  16.7 °C 41.5 °F /  5.3 °C 30.40in /  1029.3hPa NE 2.9mph /  4.7km/h 8.0mph /  12.9km/h 47% 0.00in /  0mm 520.0 W/m2
09:17 62.6 °F /  17 °C 41.5 °F /  5.3 °C 30.40in /  1029.3hPa SE 2.0mph /  3.2km/h 6.0mph /  9.7km/h 46% 0.00in /  0mm 540.0 W/m2
09:23 63.1 °F /  17.3 °C 41.5 °F /  5.3 °C 30.40in /  1029.3hPa NE 4.9mph /  7.9km/h 7.0mph /  11.3km/h 45% 0.00in /  0mm 554.0 W/m2
09:30 63.7 °F /  17.6 °C 41.4 °F /  5.2 °C 30.40in /  1029.3hPa ENE 2.9mph /  4.7km/h 8.0mph /  12.9km/h 44% 0.00in /  0mm 568.0 W/m2
09:36 64.0 °F /  17.8 °C 41.2 °F /  5.1 °C 30.40in /  1029.3hPa NE 4.0mph /  6.4km/h 6.0mph /  9.7km/h 43% 0.00in /  0mm 580.0 W/m2
09:42 64.8 °F /  18.2 °C 41.2 °F /  5.1 °C 30.40in /  1029.3hPa SE 2.0mph /  3.2km/h 7.0mph /  11.3km/h 42% 0.00in /  0mm 594.0 W/m2
09:48 65.1 °F /  18.4 °C 40.8 °F /  4.9 °C 30.40in /  1029.3hPa Calm   5.0mph /  8km/h 41% 0.00in /  0mm 608.0 W/m2
09:54 65.7 °F /  18.7 °C 41.4 °F /  5.2 °C 30.40in /  1029.3hPa Calm   6.0mph /  9.7km/h 41% 0.00in /  0mm 622.0 W/m2
10:00 66.2 °F /  19 °C 41.7 °F /  5.4 °C 30.40in /  1029.3hPa ESE 0.9mph /  1.4km/h 8.0mph /  12.9km/h 41% 0.00in /  0mm 629.0 W/m2
10:06 66.7 °F /  19.3 °C 41.7 °F /  5.4 °C 30.40in /  1029.3hPa NNE 6.0mph /  9.7km/h 7.0mph /  11.3km/h 40% 0.00in /  0mm 640.0 W/m2
10:12 67.5 °F /  19.7 °C 41.0 °F /  5 °C 30.40in /  1029.3hPa NE 2.0mph /  3.2km/h 6.0mph /  9.7km/h 38% 0.00in /  0mm 647.0 W/m2
10:18 67.8 °F /  19.9 °C 39.9 °F /  4.4 °C 30.40in /  1029.3hPa NNE 0.9mph /  1.4km/h 8.0mph /  12.9km/h 36% 0.00in /  0mm 657.0 W/m2
10:25 68.5 °F /  20.3 °C 39.7 °F /  4.3 °C 30.40in /  1029.3hPa Calm   6.0mph /  9.7km/h 35% 0.00in /  0mm 668.0 W/m2
10:31 68.9 °F /  20.5 °C 39.4 °F /  4.1 °C 30.39in /  1029hPa ESE 0.9mph /  1.4km/h 7.0mph /  11.3km/h 34% 0.00in /  0mm 671.0 W/m2
10:37 69.1 °F /  20.6 °C 40.3 °F /  4.6 °C 30.39in /  1029hPa Calm   3.0mph /  4.8km/h 35% 0.00in /  0mm 679.0 W/m2
10:43 69.6 °F /  20.9 °C 39.2 °F /  4 °C 30.39in /  1029hPa ESE 2.9mph /  4.7km/h 7.0mph /  11.3km/h 33% 0.00in /  0mm 687.0 W/m2
10:49 70.0 °F /  21.1 °C 37.9 °F /  3.3 °C 30.39in /  1029hPa NE 4.0mph /  6.4km/h 6.0mph /  9.7km/h 31% 0.00in /  0mm 694.0 W/m2
10:55 70.2 °F /  21.2 °C 38.8 °F /  3.8 °C 30.39in /  1029hPa Calm   5.0mph /  8km/h 32% 0.00in /  0mm 698.0 W/m2
11:01 70.2 °F /  21.2 °C 38.8 °F /  3.8 °C 30.38in /  1028.7hPa NNE 2.0mph /  3.2km/h 3.0mph /  4.8km/h 32% 0.00in /  0mm 707.0 W/m2
11:08 70.9 °F /  21.6 °C 36.1 °F /  2.3 °C 30.38in /  1028.7hPa Calm   3.0mph /  4.8km/h 28% 0.00in /  0mm 705.0 W/m2
11:14 71.1 °F /  21.7 °C 36.3 °F /  2.4 °C 30.39in /  1029hPa Calm   2.0mph /  3.2km/h 28% 0.00in /  0mm 710.0 W/m2
11:20 71.4 °F /  21.9 °C 36.7 °F /  2.6 °C 30.38in /  1028.7hPa ESE 4.9mph /  7.9km/h 11.0mph /  17.7km/h 28% 0.00in /  0mm 714.0 W/m2
11:26 71.4 °F /  21.9 °C 35.8 °F /  2.1 °C 30.38in /  1028.7hPa Calm   3.0mph /  4.8km/h 27% 0.00in /  0mm 717.0 W/m2
11:32 71.6 °F /  22 °C 35.8 °F /  2.1 °C 30.38in /  1028.7hPa NW 4.0mph /  6.4km/h 5.0mph /  8km/h 27% 0.00in /  0mm 721.0 W/m2
11:38 72.0 °F /  22.2 °C 34.2 °F /  1.2 °C 30.38in /  1028.7hPa North 0.9mph /  1.4km/h 3.0mph /  4.8km/h 25% 0.00in /  0mm 724.0 W/m2
11:44 72.7 °F /  22.6 °C 33.8 °F /  1 °C 30.37in /  1028.3hPa NE 2.9mph /  4.7km/h 6.0mph /  9.7km/h 24% 0.00in /  0mm 717.0 W/m2
11:50 72.7 °F /  22.6 °C 34.9 °F /  1.6 °C 30.37in /  1028.3hPa Calm   5.0mph /  8km/h 25% 0.00in /  0mm 719.0 W/m2
11:57 72.7 °F /  22.6 °C 34.9 °F /  1.6 °C 30.37in /  1028.3hPa NW 0.9mph /  1.4km/h 2.0mph /  3.2km/h 25% 0.00in /  0mm 721.0 W/m2
12:03 72.7 °F /  22.6 °C 31.6 °F /  -0.2 °C 30.37in /  1028.3hPa NNW 2.9mph /  4.7km/h 8.0mph /  12.9km/h 22% 0.00in /  0mm 719.0 W/m2
12:09 72.9 °F /  22.7 °C 31.8 °F /  -0.1 °C 30.37in /  1028.3hPa Calm   5.0mph /  8km/h 22% 0.00in /  0mm 715.0 W/m2
12:15 72.9 °F /  22.7 °C 31.8 °F /  -0.1 °C 30.36in /  1028hPa NNW 0.9mph /  1.4km/h 3.0mph /  4.8km/h 22% 0.00in /  0mm 710.0 W/m2
12:21 72.7 °F /  22.6 °C 31.6 °F /  -0.2 °C 30.35in /  1027.7hPa Calm   1.0mph /  1.6km/h 22% 0.00in /  0mm 707.0 W/m2
12:27 72.7 °F /  22.6 °C 32.7 °F /  0.4 °C 30.35in /  1027.7hPa East 2.0mph /  3.2km/h 6.0mph /  9.7km/h 23% 0.00in /  0mm 705.0 W/m2
12:33 73.2 °F /  22.9 °C 30.9 °F /  -0.6 °C 30.35in /  1027.7hPa NE 0.9mph /  1.4km/h 5.0mph /  8km/h 21% 0.00in /  0mm 700.0 W/m2
12:39 73.6 °F /  23.1 °C 30.0 °F /  -1.1 °C 30.34in /  1027.3hPa ENE 0.9mph /  1.4km/h 5.0mph /  8km/h 20% 0.00in /  0mm 698.0 W/m2
12:45 73.6 °F /  23.1 °C 31.3 °F /  -0.4 °C 30.34in /  1027.3hPa North 2.0mph /  3.2km/h 5.0mph /  8km/h 21% 0.00in /  0mm 689.0 W/m2
12:51 73.6 °F /  23.1 °C 32.4 °F /  0.2 °C 30.34in /  1027.3hPa Calm   5.0mph /  8km/h 22% 0.00in /  0mm 686.0 W/m2
12:57 73.6 °F /  23.1 °C 31.3 °F /  -0.4 °C 30.33in /  1027hPa Calm   6.0mph /  9.7km/h 21% 0.00in /  0mm 671.0 W/m2
13:03 73.6 °F /  23.1 °C 32.4 °F /  0.2 °C 30.33in /  1027hPa NNE 2.9mph /  4.7km/h 4.0mph /  6.4km/h 22% 0.00in /  0mm 664.0 W/m2
13:10 73.8 °F /  23.2 °C 31.5 °F /  -0.3 °C 30.33in /  1027hPa ENE 2.9mph /  4.7km/h 7.0mph /  11.3km/h 21% 0.00in /  0mm 657.0 W/m2
13:16 73.8 °F /  23.2 °C 32.5 °F /  0.3 °C 30.32in /  1026.6hPa North 2.0mph /  3.2km/h 7.0mph /  11.3km/h 22% 0.00in /  0mm 649.0 W/m2
13:22 73.8 °F /  23.2 °C 31.5 °F /  -0.3 °C 30.32in /  1026.6hPa ESE 4.9mph /  7.9km/h 7.0mph /  11.3km/h 21% 0.00in /  0mm 633.0 W/m2
13:28 73.9 °F /  23.3 °C 30.4 °F /  -0.9 °C 30.32in /  1026.6hPa Calm   7.0mph /  11.3km/h 20% 0.00in /  0mm 624.0 W/m2
13:34 73.9 °F /  23.3 °C 30.4 °F /  -0.9 °C 30.32in /  1026.6hPa SE 2.9mph /  4.7km/h 4.0mph /  6.4km/h 20% 0.00in /  0mm 613.0 W/m2
13:40 74.1 °F /  23.4 °C 29.3 °F /  -1.5 °C 30.32in /  1026.6hPa NE 2.0mph /  3.2km/h 6.0mph /  9.7km/h 19% 0.00in /  0mm 601.0 W/m2
13:46 74.3 °F /  23.5 °C 30.6 °F /  -0.8 °C 30.32in /  1026.6hPa NNE 2.9mph /  4.7km/h 3.0mph /  4.8km/h 20% 0.00in /  0mm 587.0 W/m2
13:52 73.9 °F /  23.3 °C 29.1 °F /  -1.6 °C 30.32in /  1026.6hPa North 4.0mph /  6.4km/h 8.0mph /  12.9km/h 19% 0.00in /  0mm 575.0 W/m2
13:59 73.8 °F /  23.2 °C 28.9 °F /  -1.7 °C 30.32in /  1026.6hPa NNW 2.0mph /  3.2km/h 6.0mph /  9.7km/h 19% 0.00in /  0mm 564.0 W/m2
14:05 73.8 °F /  23.2 °C 30.2 °F /  -1 °C 30.32in /  1026.6hPa North 6.0mph /  9.7km/h 6.0mph /  9.7km/h 20% 0.00in /  0mm 548.0 W/m2
14:11 73.8 °F /  23.2 °C 30.2 °F /  -1 °C 30.31in /  1026.3hPa North 2.9mph /  4.7km/h 7.0mph /  11.3km/h 20% 0.00in /  0mm 534.0 W/m2
14:17 73.8 °F /  23.2 °C 31.5 °F /  -0.3 °C 30.31in /  1026.3hPa East 6.0mph /  9.7km/h 7.0mph /  11.3km/h 21% 0.00in /  0mm 520.0 W/m2
14:23 73.6 °F /  23.1 °C 28.8 °F /  -1.8 °C 30.31in /  1026.3hPa NE 4.0mph /  6.4km/h 5.0mph /  8km/h 19% 0.00in /  0mm 504.0 W/m2
14:29 73.6 °F /  23.1 °C 30.0 °F /  -1.1 °C 30.31in /  1026.3hPa Calm   3.0mph /  4.8km/h 20% 0.00in /  0mm 489.0 W/m2
14:35 73.6 °F /  23.1 °C 28.8 °F /  -1.8 °C 30.31in /  1026.3hPa East 4.9mph /  7.9km/h 6.0mph /  9.7km/h 19% 0.00in /  0mm 471.0 W/m2
14:41 73.6 °F /  23.1 °C 30.0 °F /  -1.1 °C 30.31in /  1026.3hPa ENE 0.9mph /  1.4km/h 5.0mph /  8km/h 20% 0.00in /  0mm 454.0 W/m2
14:48 73.9 °F /  23.3 °C 30.4 °F /  -0.9 °C 30.31in /  1026.3hPa NNW 0.9mph /  1.4km/h 3.0mph /  4.8km/h 20% 0.00in /  0mm 436.0 W/m2
14:54 73.9 °F /  23.3 °C 31.5 °F /  -0.3 °C 30.31in /  1026.3hPa NNE 6.0mph /  9.7km/h 7.0mph /  11.3km/h 21% 0.00in /  0mm 418.0 W/m2
15:00 73.9 °F /  23.3 °C 31.5 °F /  -0.3 °C 30.31in /  1026.3hPa SE 2.9mph /  4.7km/h 5.0mph /  8km/h 21% 0.00in /  0mm 399.0 W/m2
15:06 73.6 °F /  23.1 °C 30.0 °F /  -1.1 °C 30.31in /  1026.3hPa NNE 2.9mph /  4.7km/h 7.0mph /  11.3km/h 20% 0.00in /  0mm 381.0 W/m2
15:12 73.0 °F /  22.8 °C 29.7 °F /  -1.3 °C 30.31in /  1026.3hPa SE 4.9mph /  7.9km/h 7.0mph /  11.3km/h 20% 0.00in /  0mm 362.0 W/m2
15:18 72.9 °F /  22.7 °C 29.5 °F /  -1.4 °C 30.31in /  1026.3hPa ENE 2.0mph /  3.2km/h 5.0mph /  8km/h 20% 0.00in /  0mm 343.0 W/m2
15:24 72.5 °F /  22.5 °C 29.1 °F /  -1.6 °C 30.31in /  1026.3hPa ENE 4.0mph /  6.4km/h 6.0mph /  9.7km/h 20% 0.00in /  0mm 46.0 W/m2
15:30 72.3 °F /  22.4 °C 30.2 °F /  -1 °C 30.31in /  1026.3hPa NE 2.0mph /  3.2km/h 7.0mph /  11.3km/h 21% 0.00in /  0mm 40.0 W/m2
15:37 72.0 °F /  22.2 °C 29.8 °F /  -1.2 °C 30.31in /  1026.3hPa ESE 2.0mph /  3.2km/h 5.0mph /  8km/h 21% 0.00in /  0mm 39.0 W/m2
15:43 71.8 °F /  22.1 °C 29.7 °F /  -1.3 °C 30.31in /  1026.3hPa SE 0.9mph /  1.4km/h 5.0mph /  8km/h 21% 0.00in /  0mm 37.0 W/m2
15:49 71.4 °F /  21.9 °C 29.5 °F /  -1.4 °C 30.31in /  1026.3hPa Calm   6.0mph /  9.7km/h 21% 0.00in /  0mm 35.0 W/m2
15:55 71.1 °F /  21.7 °C 30.2 °F /  -1 °C 30.31in /  1026.3hPa Calm   3.0mph /  4.8km/h 22% 0.00in /  0mm 32.0 W/m2
16:01 70.9 °F /  21.6 °C 28.9 °F /  -1.7 °C 30.32in /  1026.6hPa NE 2.9mph /  4.7km/h 7.0mph /  11.3km/h 21% 0.00in /  0mm 26.0 W/m2
16:07 70.5 °F /  21.4 °C 29.8 °F /  -1.2 °C 30.31in /  1026.3hPa ENE 0.9mph /  1.4km/h 3.0mph /  4.8km/h 22% 0.00in /  0mm 23.0 W/m2
16:13 70.3 °F /  21.3 °C 29.7 °F /  -1.3 °C 30.32in /  1026.6hPa NNE 4.9mph /  7.9km/h 7.0mph /  11.3km/h 22% 0.00in /  0mm 21.0 W/m2
16:19 70.0 °F /  21.1 °C 30.6 °F /  -0.8 °C 30.32in /  1026.6hPa NE 0.9mph /  1.4km/h 2.0mph /  3.2km/h 23% 0.00in /  0mm 19.0 W/m2
16:26 69.6 °F /  20.9 °C 30.2 °F /  -1 °C 30.32in /  1026.6hPa Calm   6.0mph /  9.7km/h 23% 0.00in /  0mm 19.0 W/m2
16:32 69.4 °F /  20.8 °C 28.9 °F /  -1.7 °C 30.32in /  1026.6hPa ENE 0.9mph /  1.4km/h 6.0mph /  9.7km/h 22% 0.00in /  0mm 18.0 W/m2
16:38 69.1 °F /  20.6 °C 29.7 °F /  -1.3 °C 30.32in /  1026.6hPa Calm   4.0mph /  6.4km/h 23% 0.00in /  0mm 16.0 W/m2
16:44 68.7 °F /  20.4 °C 29.5 °F /  -1.4 °C 30.33in /  1027hPa Calm   5.0mph /  8km/h 23% 0.00in /  0mm 14.0 W/m2
16:50 68.5 °F /  20.3 °C 30.4 °F /  -0.9 °C 30.33in /  1027hPa Calm   2.0mph /  3.2km/h 24% 0.00in /  0mm 12.0 W/m2
16:56 68.2 °F /  20.1 °C 30.0 °F /  -1.1 °C 30.33in /  1027hPa Calm   3.0mph /  4.8km/h 24% 0.00in /  0mm 11.0 W/m2
17:02 67.6 °F /  19.8 °C 30.6 °F /  -0.8 °C 30.33in /  1027hPa Calm   2.0mph /  3.2km/h 25% 0.00in /  0mm 9.0 W/m2
17:08 67.3 °F /  19.6 °C 31.3 °F /  -0.4 °C 30.33in /  1027hPa Calm   1.0mph /  1.6km/h 26% 0.00in /  0mm 7.0 W/m2
17:15 66.6 °F /  19.2 °C 30.6 °F /  -0.8 °C 30.33in /  1027hPa Calm   1.0mph /  1.6km/h 26% 0.00in /  0mm 0.0 W/m2
17:21 65.8 °F /  18.8 °C 30.9 °F /  -0.6 °C 30.34in /  1027.3hPa Calm     27% 0.00in /  0mm 0.0 W/m2
17:27 65.1 °F /  18.4 °C 30.4 °F /  -0.9 °C 30.34in /  1027.3hPa Calm     27% 0.00in /  0mm 0.0 W/m2
17:33 64.4 °F /  18 °C 31.5 °F /  -0.3 °C 30.34in /  1027.3hPa Calm     29% 0.00in /  0mm 0.0 W/m2
17:39 63.5 °F /  17.5 °C 30.7 °F /  -0.7 °C 30.34in /  1027.3hPa Calm     29% 0.00in /  0mm 0.0 W/m2
17:45 62.8 °F /  17.1 °C 30.0 °F /  -1.1 °C 30.34in /  1027.3hPa Calm   1.0mph /  1.6km/h 29% 0.00in /  0mm 0.0 W/m2
17:51 61.9 °F /  16.6 °C 30.9 °F /  -0.6 °C 30.34in /  1027.3hPa ENE 2.0mph /  3.2km/h 3.0mph /  4.8km/h 31% 0.00in /  0mm 0.0 W/m2
17:58 61.2 °F /  16.2 °C 30.2 °F /  -1 °C 30.35in /  1027.7hPa ENE 0.9mph /  1.4km/h 1.0mph /  1.6km/h 31% 0.00in /  0mm 0.0 W/m2
18:04 60.6 °F /  15.9 °C 30.6 °F /  -0.8 °C 30.35in /  1027.7hPa ENE 2.0mph /  3.2km/h 2.0mph /  3.2km/h 32% 0.00in /  0mm 0.0 W/m2
18:10 60.3 °F /  15.7 °C 30.2 °F /  -1 °C 30.35in /  1027.7hPa Calm   2.0mph /  3.2km/h 32% 0.00in /  0mm 0.0 W/m2
18:16 59.9 °F /  15.5 °C 30.0 °F /  -1.1 °C 30.36in /  1028hPa Calm   2.0mph /  3.2km/h 32% 0.00in /  0mm 0.0 W/m2
18:22 59.5 °F /  15.3 °C 30.4 °F /  -0.9 °C 30.36in /  1028hPa Calm   2.0mph /  3.2km/h 33% 0.00in /  0mm 0.0 W/m2
18:28 59.2 °F /  15.1 °C 30.0 °F /  -1.1 °C 30.36in /  1028hPa NE 0.9mph /  1.4km/h 2.0mph /  3.2km/h 33% 0.00in /  0mm 0.0 W/m2
18:34 58.8 °F /  14.9 °C 30.6 °F /  -0.8 °C 30.36in /  1028hPa Calm   2.0mph /  3.2km/h 34% 0.00in /  0mm 0.0 W/m2
18:41 58.5 °F /  14.7 °C 30.2 °F /  -1 °C 30.37in /  1028.3hPa Calm   2.0mph /  3.2km/h 34% 0.00in /  0mm 0.0 W/m2
18:47 58.1 °F /  14.5 °C 30.6 °F /  -0.8 °C 30.37in /  1028.3hPa Calm     35% 0.00in /  0mm 0.0 W/m2
18:53 57.7 °F /  14.3 °C 30.2 °F /  -1 °C 30.38in /  1028.7hPa North 0.9mph /  1.4km/h 5.0mph /  8km/h 35% 0.00in /  0mm 0.0 W/m2
18:59 57.7 °F /  14.3 °C 30.9 °F /  -0.6 °C 30.38in /  1028.7hPa Calm   1.0mph /  1.6km/h 36% 0.00in /  0mm 0.0 W/m2
19:05 57.7 °F /  14.3 °C 30.9 °F /  -0.6 °C 30.38in /  1028.7hPa Calm   2.0mph /  3.2km/h 36% 0.00in /  0mm 0.0 W/m2
19:11 57.6 °F /  14.2 °C 30.7 °F /  -0.7 °C 30.38in /  1028.7hPa Calm   2.0mph /  3.2km/h 36% 0.00in /  0mm 0.0 W/m2
19:17 57.6 °F /  14.2 °C 30.7 °F /  -0.7 °C 30.38in /  1028.7hPa Calm   3.0mph /  4.8km/h 36% 0.00in /  0mm 0.0 W/m2
19:19 57.6 °F /  14.2 °C 30.7 °F /  -0.7 °C 30.38in /  1028.7hPa Calm   1.0mph /  1.6km/h 36% 0.00in /  0mm 0.0 W/m2
19:26 57.4 °F /  14.1 °C 30.6 °F /  -0.8 °C 30.38in /  1028.7hPa Calm   1.0mph /  1.6km/h 36% 0.00in /  0mm 0.0 W/m2
19:32 57.4 °F /  14.1 °C 30.6 °F /  -0.8 °C 30.38in /  1028.7hPa ENE 2.0mph /  3.2km/h 2.0mph /  3.2km/h 36% 0.00in /  0mm 0.0 W/m2
19:38 57.2 °F /  14 °C 31.1 °F /  -0.5 °C 30.39in /  1029hPa Calm     37% 0.00in /  0mm 0.0 W/m2
19:44 57.0 °F /  13.9 °C 30.9 °F /  -0.6 °C 30.39in /  1029hPa Calm     37% 0.00in /  0mm 0.0 W/m2
19:50 56.7 °F /  13.7 °C 30.7 °F /  -0.7 °C 30.39in /  1029hPa ESE 0.9mph /  1.4km/h 1.0mph /  1.6km/h 37% 0.00in /  0mm 0.0 W/m2
19:56 56.5 °F /  13.6 °C 31.1 °F /  -0.5 °C 30.39in /  1029hPa Calm     38% 0.00in /  0mm 0.0 W/m2
20:02 56.1 °F /  13.4 °C 30.9 °F /  -0.6 °C 30.39in /  1029hPa Calm   1.0mph /  1.6km/h 38% 0.00in /  0mm 0.0 W/m2
20:08 55.8 °F /  13.2 °C 30.6 °F /  -0.8 °C 30.39in /  1029hPa Calm   1.0mph /  1.6km/h 38% 0.00in /  0mm 0.0 W/m2
20:15 55.6 °F /  13.1 °C 31.1 °F /  -0.5 °C 30.39in /  1029hPa Calm     39% 0.00in /  0mm 0.0 W/m2
20:21 55.2 °F /  12.9 °C 31.3 °F /  -0.4 °C 30.39in /  1029hPa Calm     40% 0.00in /  0mm 0.0 W/m2
20:27 54.9 °F /  12.7 °C 30.9 °F /  -0.6 °C 30.39in /  1029hPa Calm     40% 0.00in /  0mm 0.0 W/m2
20:33 54.3 °F /  12.4 °C 31.1 °F /  -0.5 °C 30.39in /  1029hPa Calm     41% 0.00in /  0mm 0.0 W/m2
20:39 54.0 °F /  12.2 °C 30.7 °F /  -0.7 °C 30.39in /  1029hPa Calm     41% 0.00in /  0mm 0.0 W/m2
20:45 53.8 °F /  12.1 °C 31.3 °F /  -0.4 °C 30.39in /  1029hPa ENE 0.9mph /  1.4km/h 2.0mph /  3.2km/h 42% 0.00in /  0mm 0.0 W/m2
20:51 53.4 °F /  11.9 °C 31.5 °F /  -0.3 °C 30.39in /  1029hPa Calm   3.0mph /  4.8km/h 43% 0.00in /  0mm 0.0 W/m2
20:58 53.2 °F /  11.8 °C 31.3 °F /  -0.4 °C 30.39in /  1029hPa Calm   1.0mph /  1.6km/h 43% 0.00in /  0mm 0.0 W/m2
21:04 53.1 °F /  11.7 °C 31.1 °F /  -0.5 °C 30.39in /  1029hPa Calm   3.0mph /  4.8km/h 43% 0.00in /  0mm 0.0 W/m2
21:10 52.9 °F /  11.6 °C 30.9 °F /  -0.6 °C 30.39in /  1029hPa East 0.9mph /  1.4km/h 2.0mph /  3.2km/h 43% 0.00in /  0mm 0.0 W/m2
21:16 52.9 °F /  11.6 °C 30.9 °F /  -0.6 °C 30.39in /  1029hPa Calm   1.0mph /  1.6km/h 43% 0.00in /  0mm 0.0 W/m2
21:22 52.5 °F /  11.4 °C 31.3 °F /  -0.4 °C 30.39in /  1029hPa Calm   2.0mph /  3.2km/h 44% 0.00in /  0mm 0.0 W/m2
21:28 52.3 °F /  11.3 °C 31.1 °F /  -0.5 °C 30.39in /  1029hPa Calm   2.0mph /  3.2km/h 44% 0.00in /  0mm 0.0 W/m2
21:34 52.2 °F /  11.2 °C 30.9 °F /  -0.6 °C 30.39in /  1029hPa Calm   4.0mph /  6.4km/h 44% 0.00in /  0mm 0.0 W/m2
21:41 52.0 °F /  11.1 °C 31.3 °F /  -0.4 °C 30.39in /  1029hPa Calm   1.0mph /  1.6km/h 45% 0.00in /  0mm 0.0 W/m2
21:47 52.0 °F /  11.1 °C 31.3 °F /  -0.4 °C 30.39in /  1029hPa Calm     45% 0.00in /  0mm 0.0 W/m2
21:53 52.0 °F /  11.1 °C 31.3 °F /  -0.4 °C 30.39in /  1029hPa ESE 0.9mph /  1.4km/h 1.0mph /  1.6km/h 45% 0.00in /  0mm 0.0 W/m2
21:59 52.0 °F /  11.1 °C 31.3 °F /  -0.4 °C 30.39in /  1029hPa ENE 0.9mph /  1.4km/h 2.0mph /  3.2km/h 45% 0.00in /  0mm 0.0 W/m2
22:05 51.8 °F /  11 °C 31.1 °F /  -0.5 °C 30.39in /  1029hPa Calm   3.0mph /  4.8km/h 45% 0.00in /  0mm 0.0 W/m2
22:11 51.6 °F /  10.9 °C 30.9 °F /  -0.6 °C 30.39in /  1029hPa ESE 6.0mph /  9.7km/h 6.0mph /  9.7km/h 45% 0.00in /  0mm 0.0 W/m2
22:17 51.6 °F /  10.9 °C 30.9 °F /  -0.6 °C 30.39in /  1029hPa Calm   5.0mph /  8km/h 45% 0.00in /  0mm 0.0 W/m2
22:24 51.4 °F /  10.8 °C 30.7 °F /  -0.7 °C 30.39in /  1029hPa East 0.9mph /  1.4km/h 3.0mph /  4.8km/h 45% 0.00in /  0mm 0.0 W/m2
22:30 51.4 °F /  10.8 °C 31.3 °F /  -0.4 °C 30.39in /  1029hPa ESE 2.9mph /  4.7km/h 5.0mph /  8km/h 46% 0.00in /  0mm 0.0 W/m2
22:36 51.3 °F /  10.7 °C 31.1 °F /  -0.5 °C 30.39in /  1029hPa Calm   3.0mph /  4.8km/h 46% 0.00in /  0mm 0.0 W/m2
22:42 51.3 °F /  10.7 °C 31.1 °F /  -0.5 °C 30.39in /  1029hPa Calm   4.0mph /  6.4km/h 46% 0.00in /  0mm 0.0 W/m2
22:48 51.3 °F /  10.7 °C 31.1 °F /  -0.5 °C 30.39in /  1029hPa Calm   1.0mph /  1.6km/h 46% 0.00in /  0mm 0.0 W/m2
22:54 51.3 °F /  10.7 °C 31.1 °F /  -0.5 °C 30.39in /  1029hPa Calm   1.0mph /  1.6km/h 46% 0.00in /  0mm 0.0 W/m2
23:00 51.3 °F /  10.7 °C 31.1 °F /  -0.5 °C 30.39in /  1029hPa Calm   1.0mph /  1.6km/h 46% 0.00in /  0mm 0.0 W/m2
23:06 51.3 °F /  10.7 °C 31.6 °F /  -0.2 °C 30.39in /  1029hPa East 0.9mph /  1.4km/h 1.0mph /  1.6km/h 47% 0.00in /  0mm 0.0 W/m2
23:12 51.3 °F /  10.7 °C 31.6 °F /  -0.2 °C 30.39in /  1029hPa Calm   1.0mph /  1.6km/h 47% 0.00in /  0mm 0.0 W/m2
23:18 51.3 °F /  10.7 °C 31.6 °F /  -0.2 °C 30.39in /  1029hPa Calm   1.0mph /  1.6km/h 47% 0.00in /  0mm 0.0 W/m2
23:25 51.3 °F /  10.7 °C 32.2 °F /  0.1 °C 30.39in /  1029hPa Calm     48% 0.00in /  0mm 0.0 W/m2
23:31 51.1 °F /  10.6 °C 32.5 °F /  0.3 °C 30.39in /  1029hPa Calm   2.0mph /  3.2km/h 49% 0.00in /  0mm 0.0 W/m2
23:37 51.1 °F /  10.6 °C 32.5 °F /  0.3 °C 30.39in /  1029hPa Calm   1.0mph /  1.6km/h 49% 0.00in /  0mm 0.0 W/m2
23:49 50.7 °F /  10.4 °C 32.7 °F /  0.4 °C 30.39in /  1029hPa Calm     50% 0.00in /  0mm 0.0 W/m2
23:55 50.5 °F /  10.3 °C 33.1 °F /  0.6 °C 30.39in /  1029hPa Calm     51% 0.00in /  0mm 0.0 W/m2
Olympia, Windhoek, Namibia
Compliments of Weather Underground - 3 mb